Time;durP1;ratioP1;P1;durP2;ratioP2;P2;SDS_P1;SDS_P2;PMS_P1;PMS_P2;Temp;Humidity;BMP_temperature;BMP_pressure;BME280_temperature;BME280_humidity;BME280_pressure;Samples;Min_cycle;Max_cycle;Signal;HPM_P1;HPM_P2
2021/03/25 00:02:46;;;;;;;87.53;31.92;;;;;;;;;;8260842;28;20372;-70
2021/03/25 00:06:56;;;;;;;94.97;33.70;;;;;;;;;;8259641;28;20390;-69
2021/03/25 00:11:01;;;;;;;92.97;33.90;;;;;;;;;;8262211;28;20490;-69
2021/03/25 00:15:08;;;;;;;94.32;32.78;;;;;;;;;;8261407;28;20399;-71
2021/03/25 00:19:12;;;;;;;93.22;34.50;;;;;;;;;;8261263;28;20057;-69
2021/03/25 00:23:18;;;;;;;84.40;31.63;;;;;;;;;;8259004;28;20053;-68
2021/03/25 00:27:22;;;;;;;80.88;27.38;;;;;;;;;;8260260;28;20448;-67
2021/03/25 00:31:27;;;;;;;80.85;29.33;;;;;;;;;;8262090;28;20475;-68
2021/03/25 00:35:32;;;;;;;81.63;28.75;;;;;;;;;;8275742;28;20072;-68
2021/03/25 00:39:37;;;;;;;65.65;25.98;;;;;;;;;;8259718;28;20348;-68
2021/03/25 00:43:41;;;;;;;68.70;27.55;;;;;;;;;;8261322;28;20367;-68
2021/03/25 00:47:46;;;;;;;75.65;27.95;;;;;;;;;;8260736;28;20412;-68
2021/03/25 00:51:51;;;;;;;71.35;29.45;;;;;;;;;;8259929;28;20368;-68
2021/03/25 00:55:56;;;;;;;94.00;38.63;;;;;;;;;;8259766;28;20084;-69
2021/03/25 01:00:00;;;;;;;81.22;33.28;;;;;;;;;;8260218;28;20502;-69
2021/03/25 01:04:05;;;;;;;79.57;29.73;;;;;;;;;;8238368;28;20471;-67
2021/03/25 01:08:11;;;;;;;79.30;30.20;;;;;;;;;;8226912;28;20491;-68
2021/03/25 01:12:15;;;;;;;81.55;28.83;;;;;;;;;;8229849;28;20389;-68
2021/03/25 01:16:36;;;;;;;85.03;28.58;;;;;;;;;;8225064;28;20395;-67
2021/03/25 01:20:44;;;;;;;84.25;30.25;;;;;;;;;;8227302;28;20457;-68
2021/03/25 01:24:51;;;;;;;87.15;32.28;;;;;;;;;;8242388;28;20389;-68
2021/03/25 01:28:59;;;;;;;98.75;36.15;;;;;;;;;;8225242;28;20377;-69
2021/03/25 01:33:09;;;;;;;86.70;31.23;;;;;;;;;;8224013;28;20357;-68
2021/03/25 01:37:14;;;;;;;97.20;34.83;;;;;;;;;;8223340;28;20486;-68
2021/03/25 01:41:36;;;;;;;78.85;31.58;;;;;;;;;;8224960;28;20464;-68
2021/03/25 01:45:50;;;;;;;;;;;;;;;;;;8240580;28;20476;-68
2021/03/25 01:49:54;;;;;;;77.40;28.02;;;;;;;;;;8241581;28;20328;-68
2021/03/25 01:54:22;;;;;;;80.93;27.13;;;;;;;;;;8241102;28;20075;-70
2021/03/25 01:58:48;;;;;;;80.07;27.83;;;;;;;;;;8225107;28;20347;-69
2021/03/25 02:03:26;;;;;;;73.53;27.33;;;;;;;;;;8208696;28;20334;-68
2021/03/25 02:07:49;;;;;;;69.60;28.05;;;;;;;;;;8225489;28;20359;-68
2021/03/25 02:12:35;;;;;;;68.70;29.10;;;;;;;;;;8208295;28;20107;-69
2021/03/25 02:17:23;;;;;;;78.28;28.42;;;;;;;;;;8223841;28;20480;-68
2021/03/25 02:22:14;;;;;;;76.70;29.85;;;;;;;;;;8222313;28;20469;-69
2021/03/25 02:26:51;;;;;;;84.25;31.02;;;;;;;;;;8225003;28;20084;-68
2021/03/25 02:31:14;;;;;;;77.47;32.55;;;;;;;;;;8215515;28;20045;-70
2021/03/25 02:35:31;;;;;;;81.07;31.08;;;;;;;;;;8223317;28;20376;-68
2021/03/25 02:40:03;;;;;;;144.38;57.80;;;;;;;;;;8208148;28;20369;-70
2021/03/25 02:44:27;;;;;;;87.32;33.30;;;;;;;;;;8223874;28;20437;-68
2021/03/25 02:48:35;;;;;;;85.90;32.53;;;;;;;;;;8228469;28;20456;-70
2021/03/25 02:52:48;;;;;;;85.57;33.63;;;;;;;;;;8213501;28;20072;-69
2021/03/25 02:57:07;;;;;;;81.47;33.17;;;;;;;;;;8230324;28;20368;-69
2021/03/25 03:01:15;;;;;;;80.57;32.15;;;;;;;;;;8231590;28;20392;-69
2021/03/25 03:05:25;;;;;;;81.68;33.97;;;;;;;;;;8214223;28;20376;-68
2021/03/25 03:09:37;;;;;;;82.20;32.15;;;;;;;;;;8214993;28;20429;-69
2021/03/25 03:13:55;;;;;;;92.82;35.45;;;;;;;;;;8213584;28;20380;-70
2021/03/25 03:18:15;;;;;;;82.10;35.88;;;;;;;;;;8213836;28;20480;-69
2021/03/25 03:22:22;;;;;;;72.72;31.77;;;;;;;;;;8214086;28;20042;-70
2021/03/25 03:26:57;;;;;;;118.10;47.50;;;;;;;;;;8213248;28;20483;-70
2021/03/25 03:31:05;;;;;;;;;;;;;;;;;;8230085;28;20491;-69
2021/03/25 03:35:27;;;;;;;77.45;30.67;;;;;;;;;;8214369;28;20340;-69
2021/03/25 03:39:43;;;;;;;85.45;33.05;;;;;;;;;;8215229;28;20503;-69
2021/03/25 03:43:58;;;;;;;89.88;38.00;;;;;;;;;;8214576;28;20076;-71
2021/03/25 03:48:16;;;;;;;100.60;44.95;;;;;;;;;;8164432;28;20050;-69
2021/03/25 03:52:30;;;;;;;79.72;32.30;;;;;;;;;;8177831;28;20453;-71
2021/03/25 03:57:00;;;;;;;90.43;35.67;;;;;;;;;;8146403;28;20492;-69
2021/03/25 04:01:34;;;;;;;97.05;35.63;;;;;;;;;;8161675;28;20409;-70
2021/03/25 04:05:57;;;;;;;101.35;39.72;;;;;;;;;;8161711;28;20366;-69
2021/03/25 04:10:13;;;;;;;94.60;37.70;;;;;;;;;;8147398;28;20428;-71
2021/03/25 04:14:26;;;;;;;92.22;37.33;;;;;;;;;;8177609;28;20382;-69
2021/03/25 04:18:49;;;;;;;94.38;36.40;;;;;;;;;;8148115;28;20479;-69
2021/03/25 04:23:18;;;;;;;96.20;36.60;;;;;;;;;;8148425;28;20417;-69
2021/03/25 04:27:28;;;;;;;;;;;;;;;;;;8163257;28;20434;-69
2021/03/25 04:31:33;;;;;;;93.38;38.28;;;;;;;;;;8162075;28;20336;-69
2021/03/25 04:35:42;;;;;;;89.70;38.10;;;;;;;;;;8161158;28;20055;-69
2021/03/25 04:39:48;;;;;;;103.05;46.50;;;;;;;;;;8160606;28;20393;-71
2021/03/25 04:48:22;;;;;;;87.72;36.42;;;;;;;;;;8421338;27;20885;-69
2021/03/25 04:52:31;;;;;;;99.10;37.95;;;;;;;;;;8385826;28;20043;-70
2021/03/25 04:56:34;;;;;;;101.80;39.67;;;;;;;;;;8385443;28;20392;-69
2021/03/25 05:00:42;;;;;;;88.07;35.75;;;;;;;;;;8384244;28;20369;-69
2021/03/25 05:04:51;;;;;;;86.68;37.95;;;;;;;;;;8383956;28;20466;-69
2021/03/25 05:08:57;;;;;;;84.50;37.33;;;;;;;;;;8383272;28;20398;-70
2021/03/25 05:13:01;;;;;;;91.97;38.55;;;;;;;;;;8384949;28;20073;-69
2021/03/25 05:17:45;;;;;;;89.93;37.13;;;;;;;;;;8385731;27;20350;-68
2021/03/25 05:22:37;;;;;;;89.97;37.97;;;;;;;;;;8385697;28;20043;-69
2021/03/25 05:26:55;;;;;;;85.43;38.25;;;;;;;;;;8366229;27;20461;-69
2021/03/25 05:31:01;;;;;;;91.40;39.33;;;;;;;;;;8385055;28;20448;-69
2021/03/25 05:35:12;;;;;;;86.55;38.17;;;;;;;;;;8383462;28;20059;-69
2021/03/25 05:39:17;;;;;;;94.05;37.85;;;;;;;;;;8383233;28;20078;-69
2021/03/25 05:44:13;;;;;;;93.93;38.33;;;;;;;;;;8382378;28;20354;-70
2021/03/25 05:48:43;;;;;;;90.63;39.97;;;;;;;;;;8384436;28;20480;-69
2021/03/25 05:53:21;;;;;;;93.50;39.67;;;;;;;;;;8382544;28;20346;-69
2021/03/25 05:58:26;;;;;;;93.60;39.67;;;;;;;;;;8373630;27;20653;-69
2021/03/25 06:02:58;;;;;;;95.25;37.90;;;;;;;;;;8338807;27;20382;-69
2021/03/25 06:07:15;;;;;;;105.80;43.15;;;;;;;;;;8346465;28;20467;-69
2021/03/25 06:11:54;;;;;;;99.43;38.35;;;;;;;;;;8360457;28;20074;-69
2021/03/25 06:16:32;;;;;;;88.40;38.08;;;;;;;;;;8359148;28;20481;-70
2021/03/25 06:20:58;;;;;;;94.70;39.58;;;;;;;;;;8360697;28;20482;-69
2021/03/25 06:25:36;;;;;;;85.18;38.38;;;;;;;;;;8361333;28;20047;-69
2021/03/25 06:29:54;;;;;;;102.50;42.28;;;;;;;;;;8360899;28;20066;-69
2021/03/25 06:34:22;;;;;;;91.97;38.97;;;;;;;;;;8362645;28;20362;-69
2021/03/25 06:38:52;;;;;;;107.67;42.37;;;;;;;;;;8359128;28;20468;-69
2021/03/25 06:43:09;;;;;;;92.95;41.05;;;;;;;;;;8357562;28;20454;-71
2021/03/25 06:47:21;;;;;;;99.13;43.83;;;;;;;;;;8361244;28;20381;-72
2021/03/25 06:51:25;;;;;;;105.78;45.05;;;;;;;;;;8356370;28;20474;-70
2021/03/25 06:55:29;;;;;;;118.50;50.35;;;;;;;;;;8359378;28;20478;-70
2021/03/25 06:59:38;;;;;;;117.07;48.70;;;;;;;;;;8361133;28;20430;-71
2021/03/25 07:03:44;;;;;;;113.07;48.58;;;;;;;;;;8359263;28;20074;-69
2021/03/25 07:08:11;;;;;;;117.60;47.20;;;;;;;;;;8357078;28;20362;-69
2021/03/25 07:12:32;;;;;;;100.28;43.22;;;;;;;;;;8359110;28;20384;-69
2021/03/25 07:16:46;;;;;;;102.93;45.90;;;;;;;;;;8356455;28;20488;-70
2021/03/25 07:21:30;;;;;;;118.22;48.08;;;;;;;;;;8357639;28;20462;-69
2021/03/25 07:25:42;;;;;;;86.15;40.60;;;;;;;;;;8358377;28;20397;-69
2021/03/25 07:30:02;;;;;;;86.90;38.33;;;;;;;;;;8357873;28;20492;-69
2021/03/25 07:34:09;;;;;;;90.13;38.88;;;;;;;;;;8356621;28;20381;-70
2021/03/25 07:38:39;;;;;;;85.47;38.00;;;;;;;;;;8358552;28;20537;-70
2021/03/25 07:42:43;;;;;;;89.60;40.13;;;;;;;;;;8351107;27;20394;-70
2021/03/25 07:46:47;;;;;;;96.32;43.58;;;;;;;;;;8357563;28;20366;-69
2021/03/25 07:51:12;;;;;;;98.57;41.60;;;;;;;;;;8358168;28;20438;-69
2021/03/25 07:55:19;;;;;;;91.65;38.70;;;;;;;;;;8359119;28;20059;-69
2021/03/25 07:59:44;;;;;;;84.55;40.25;;;;;;;;;;8358710;28;20477;-71
2021/03/25 08:03:58;;;;;;;82.85;36.00;;;;;;;;;;8358670;28;20381;-69
2021/03/25 08:08:28;;;;;;;83.63;37.10;;;;;;;;;;8358339;28;20381;-69
2021/03/25 08:12:37;;;;;;;81.10;35.47;;;;;;;;;;8356763;28;20459;-69
2021/03/25 08:16:51;;;;;;;80.72;37.90;;;;;;;;;;8355318;28;20358;-71
2021/03/25 08:21:25;;;;;;;82.07;37.35;;;;;;;;;;8356133;28;20373;-70
2021/03/25 08:26:07;;;;;;;87.65;39.33;;;;;;;;;;8359085;28;20330;-69
2021/03/25 08:30:57;;;;;;;86.45;38.92;;;;;;;;;;8355841;28;20446;-71
2021/03/25 08:35:17;;;;;;;73.10;32.22;;;;;;;;;;8263650;28;20457;-70
2021/03/25 08:39:55;;;;;;;80.15;37.35;;;;;;;;;;8357546;28;20362;-69
2021/03/25 08:44:19;;;;;;;;;;;;;;;;;;8343068;28;20458;-71
2021/03/25 08:48:40;;;;;;;60.58;27.95;;;;;;;;;;8340683;28;20345;-71
2021/03/25 08:52:45;;;;;;;54.92;27.95;;;;;;;;;;8358609;28;20361;-69
2021/03/25 08:57:08;;;;;;;49.88;25.55;;;;;;;;;;8357010;28;20082;-70
2021/03/25 09:01:20;;;;;;;52.03;25.65;;;;;;;;;;8355440;28;20355;-70
2021/03/25 09:05:36;;;;;;;50.20;26.55;;;;;;;;;;8338951;28;20510;-70
2021/03/25 09:09:56;;;;;;;48.95;25.42;;;;;;;;;;8358377;28;20374;-69
2021/03/25 09:14:01;;;;;;;49.67;25.05;;;;;;;;;;8355872;28;20477;-70
2021/03/25 09:18:28;;;;;;;46.58;23.92;;;;;;;;;;8340361;28;20052;-71
2021/03/25 09:22:45;;;;;;;52.35;25.95;;;;;;;;;;8340783;28;20457;-69
2021/03/25 09:26:57;;;;;;;;;;;;;;;;;;8358537;28;20078;-70
2021/03/25 09:31:08;;;;;;;49.85;23.95;;;;;;;;;;8354660;28;20350;-70
2021/03/25 09:35:43;;;;;;;45.58;24.63;;;;;;;;;;8363240;28;20468;-71
2021/03/25 09:40:45;;;;;;;54.55;26.40;;;;;;;;;;8363527;28;20056;-70
2021/03/25 09:44:50;;;;;;;46.80;24.55;;;;;;;;;;8355288;28;20074;-70
2021/03/25 09:49:20;;;;;;;53.33;24.90;;;;;;;;;;8294828;28;20341;-70
2021/03/25 09:53:23;;;;;;;51.25;24.40;;;;;;;;;;8294447;28;20078;-71
2021/03/25 09:57:29;;;;;;;52.10;26.55;;;;;;;;;;8291180;28;20049;-69
2021/03/25 10:01:56;;;;;;;51.10;24.80;;;;;;;;;;8293677;28;20075;-69
2021/03/25 10:06:02;;;;;;;48.20;23.75;;;;;;;;;;8293220;28;20378;-70
2021/03/25 10:11:00;;;;;;;46.42;24.05;;;;;;;;;;8294398;28;20497;-70
2021/03/25 10:15:41;;;;;;;50.50;24.92;;;;;;;;;;8296021;28;20382;-69
2021/03/25 10:20:05;;;;;;;47.65;22.80;;;;;;;;;;8295409;28;20447;-69
2021/03/25 10:24:40;;;;;;;46.03;24.50;;;;;;;;;;8311360;28;20374;-70
2021/03/25 10:29:07;;;;;;;55.25;26.90;;;;;;;;;;8298080;28;20473;-70
2021/03/25 10:33:18;;;;;;;40.08;21.95;;;;;;;;;;8294255;28;20052;-70
2021/03/25 10:37:44;;;;;;;44.60;24.83;;;;;;;;;;8295758;28;20406;-70
2021/03/25 10:41:58;;;;;;;41.72;23.88;;;;;;;;;;8295684;28;20341;-71
2021/03/25 10:46:30;;;;;;;50.70;27.55;;;;;;;;;;8313990;28;20493;-70
2021/03/25 10:51:09;;;;;;;43.38;22.95;;;;;;;;;;8358375;28;20469;-70
2021/03/25 10:55:53;;;;;;;43.40;23.52;;;;;;;;;;8359320;28;20048;-70
2021/03/25 11:00:06;;;;;;;42.80;23.70;;;;;;;;;;8312860;28;20078;-68
2021/03/25 11:10:32;;;;;;;53.50;27.42;;;;;;;;;;8318957;28;20352;-69
2021/03/25 11:14:44;;;;;;;46.40;23.65;;;;;;;;;;8321959;28;20044;-70
2021/03/25 11:19:18;;;;;;;38.97;22.27;;;;;;;;;;8324853;28;20450;-70
2021/03/25 11:23:26;;;;;;;42.63;25.13;;;;;;;;;;8290552;28;20354;-70
2021/03/25 11:27:34;;;;;;;48.97;24.50;;;;;;;;;;8307250;28;20431;-70
2021/03/25 11:31:38;;;;;;;42.85;23.95;;;;;;;;;;8325341;28;20446;-70
2021/03/25 11:35:44;;;;;;;42.83;23.85;;;;;;;;;;8325067;28;20048;-71
2021/03/25 11:40:15;;;;;;;44.17;26.35;;;;;;;;;;8323130;28;20383;-71
2021/03/25 11:44:44;;;;;;;40.55;22.80;;;;;;;;;;8324655;28;20429;-70
2021/03/25 11:49:05;;;;;;;43.13;24.05;;;;;;;;;;8323607;28;20381;-70
2021/03/25 11:53:47;;;;;;;41.95;25.38;;;;;;;;;;8324531;28;20397;-70
2021/03/25 11:57:55;;;;;;;39.47;24.05;;;;;;;;;;8323528;28;20070;-70
2021/03/25 12:02:20;;;;;;;43.28;25.48;;;;;;;;;;8322414;28;20467;-71
2021/03/25 12:06:30;;;;;;;42.53;23.40;;;;;;;;;;8324764;28;20513;-70
2021/03/25 12:10:36;;;;;;;46.92;24.67;;;;;;;;;;8322527;28;20438;-69
2021/03/25 12:14:41;;;;;;;51.28;22.92;;;;;;;;;;8323282;28;20044;-70
2021/03/25 12:18:47;;;;;;;39.83;23.40;;;;;;;;;;8323985;28;20375;-69
2021/03/25 12:23:04;;;;;;;41.40;23.23;;;;;;;;;;8324189;28;20462;-69
2021/03/25 12:27:25;;;;;;;44.55;23.80;;;;;;;;;;8323597;28;20071;-70
2021/03/25 12:31:42;;;;;;;40.60;24.17;;;;;;;;;;8323815;28;20405;-69
2021/03/25 12:36:09;;;;;;;48.65;25.33;;;;;;;;;;8324970;28;20397;-69
2021/03/25 12:40:16;;;;;;;44.50;23.88;;;;;;;;;;8320956;28;20478;-70
2021/03/25 12:44:20;;;;;;;40.70;24.00;;;;;;;;;;8326021;28;20397;-69
2021/03/25 12:48:39;;;;;;;82.95;26.40;;;;;;;;;;8323703;28;20389;-69
2021/03/25 12:52:43;;;;;;;44.30;24.13;;;;;;;;;;8321038;28;20401;-69
2021/03/25 12:56:56;;;;;;;47.85;25.08;;;;;;;;;;8321949;28;20066;-69
2021/03/25 13:01:10;;;;;;;54.40;25.13;;;;;;;;;;8320662;28;20366;-69
2021/03/25 13:05:15;;;;;;;45.50;23.80;;;;;;;;;;8322423;28;20435;-71
2021/03/25 13:09:21;;;;;;;44.35;23.10;;;;;;;;;;8327973;28;20397;-69
2021/03/25 13:13:25;;;;;;;40.25;20.75;;;;;;;;;;8327858;28;20502;-71
2021/03/25 13:17:30;;;;;;;39.85;22.08;;;;;;;;;;8329363;28;20355;-69
2021/03/25 13:21:54;;;;;;;46.17;23.40;;;;;;;;;;8345157;28;20375;-71
2021/03/25 13:25:57;;;;;;;50.38;24.83;;;;;;;;;;8329991;28;20493;-71
2021/03/25 13:30:01;;;;;;;43.63;23.02;;;;;;;;;;8328605;28;20456;-70
2021/03/25 13:34:06;;;;;;;43.13;23.77;;;;;;;;;;8328525;28;20358;-70
2021/03/25 13:38:10;;;;;;;46.08;23.08;;;;;;;;;;8331169;28;20454;-70
2021/03/25 13:42:17;;;;;;;42.08;22.58;;;;;;;;;;8329986;28;20052;-69
2021/03/25 13:46:21;;;;;;;47.10;24.95;;;;;;;;;;8327031;28;20481;-69
2021/03/25 13:50:31;;;;;;;47.92;23.88;;;;;;;;;;8327749;28;20489;-69
2021/03/25 13:54:35;;;;;;;50.85;26.45;;;;;;;;;;8328674;28;20405;-70
2021/03/25 13:58:40;;;;;;;48.33;24.15;;;;;;;;;;8328448;28;20363;-70
2021/03/25 14:02:45;;;;;;;62.95;25.38;;;;;;;;;;8328852;28;20426;-70
2021/03/25 14:06:49;;;;;;;50.85;25.67;;;;;;;;;;8309371;28;20473;-69
2021/03/25 14:10:55;;;;;;;48.42;26.17;;;;;;;;;;8328043;28;20470;-69
2021/03/25 14:15:00;;;;;;;50.30;26.00;;;;;;;;;;8328655;28;20504;-71
2021/03/25 14:19:05;;;;;;;51.67;24.42;;;;;;;;;;8326230;28;20447;-69
2021/03/25 14:23:12;;;;;;;49.30;25.67;;;;;;;;;;8326139;28;20466;-69
2021/03/25 14:27:19;;;;;;;76.70;41.70;;;;;;;;;;8328497;28;20352;-70
2021/03/25 14:31:23;;;;;;;55.85;27.65;;;;;;;;;;8327428;28;20048;-71
2021/03/25 14:35:32;;;;;;;53.15;24.33;;;;;;;;;;8326046;28;20463;-70
2021/03/25 14:39:35;;;;;;;46.13;25.20;;;;;;;;;;8325578;28;20463;-70
2021/03/25 14:43:39;;;;;;;47.05;24.67;;;;;;;;;;8325680;28;20493;-69
2021/03/25 14:47:44;;;;;;;94.35;44.70;;;;;;;;;;8325601;28;20486;-69
2021/03/25 14:51:52;;;;;;;50.05;27.08;;;;;;;;;;8325287;28;20355;-70
2021/03/25 14:55:56;;;;;;;51.72;27.38;;;;;;;;;;8326847;28;20371;-70
2021/03/25 15:00:03;;;;;;;55.33;27.02;;;;;;;;;;8323789;28;20386;-70
2021/03/25 15:04:07;;;;;;;47.90;24.67;;;;;;;;;;8326015;28;20352;-70
2021/03/25 15:08:13;;;;;;;57.25;26.13;;;;;;;;;;8328073;28;20401;-70
2021/03/25 15:12:17;;;;;;;48.15;25.65;;;;;;;;;;8326880;28;20380;-69
2021/03/25 15:16:22;;;;;;;60.25;27.98;;;;;;;;;;8324539;28;20527;-70
2021/03/25 15:20:30;;;;;;;60.20;28.35;;;;;;;;;;8325208;28;20443;-70
2021/03/25 15:24:41;;;;;;;50.90;25.75;;;;;;;;;;8325052;28;20484;-70
2021/03/25 15:28:46;;;;;;;46.72;25.73;;;;;;;;;;8324644;28;20474;-72
2021/03/25 15:32:51;;;;;;;55.63;26.33;;;;;;;;;;8324172;28;20056;-70
2021/03/25 15:36:56;;;;;;;55.97;28.27;;;;;;;;;;8324287;28;20358;-69
2021/03/25 15:41:11;;;;;;;55.17;28.17;;;;;;;;;;8324295;28;20355;-70
2021/03/25 15:45:25;;;;;;;56.75;28.58;;;;;;;;;;8324732;28;20382;-70
2021/03/25 15:49:28;;;;;;;74.63;37.28;;;;;;;;;;8323373;28;20458;-70
2021/03/25 15:53:34;;;;;;;60.45;29.33;;;;;;;;;;8339832;28;20486;-69
2021/03/25 15:57:38;;;;;;;81.78;39.75;;;;;;;;;;8324612;28;20446;-69
2021/03/25 16:01:44;;;;;;;70.03;34.25;;;;;;;;;;8325201;28;20376;-69
2021/03/25 16:05:49;;;;;;;226.15;98.97;;;;;;;;;;8324937;28;20401;-69
2021/03/25 16:09:59;;;;;;;187.18;82.68;;;;;;;;;;8323763;28;20389;-69
2021/03/25 16:14:04;;;;;;;119.32;54.63;;;;;;;;;;8323264;28;20075;-69
2021/03/25 16:18:09;;;;;;;127.95;63.22;;;;;;;;;;8322212;28;20383;-69
2021/03/25 16:22:16;;;;;;;111.43;50.47;;;;;;;;;;8321307;28;20047;-69
2021/03/25 16:26:24;;;;;;;81.82;41.33;;;;;;;;;;8321800;28;20044;-69
2021/03/25 16:30:29;;;;;;;96.57;41.17;;;;;;;;;;8321378;28;20386;-69
2021/03/25 16:34:36;;;;;;;128.52;59.83;;;;;;;;;;8324417;28;20067;-72
2021/03/25 16:38:43;;;;;;;135.77;58.55;;;;;;;;;;8324770;28;20067;-71
2021/03/25 16:42:48;;;;;;;151.50;65.07;;;;;;;;;;8306119;28;20458;-71
2021/03/25 16:46:54;;;;;;;146.82;58.78;;;;;;;;;;8322867;28;20501;-71
2021/03/25 16:51:00;;;;;;;167.52;66.30;;;;;;;;;;8322441;28;20475;-72
2021/03/25 16:55:06;;;;;;;153.32;59.30;;;;;;;;;;8321156;28;20374;-71
2021/03/25 16:59:11;;;;;;;153.75;57.67;;;;;;;;;;8322612;28;20478;-71
2021/03/25 17:03:16;;;;;;;118.00;50.72;;;;;;;;;;8322256;28;20459;-71
2021/03/25 17:07:23;;;;;;;108.80;44.33;;;;;;;;;;8322279;28;20367;-72
2021/03/25 17:12:21;;;;;;;107.55;42.20;;;;;;;;;;8318803;28;20363;-70
2021/03/25 17:16:25;;;;;;;121.10;40.60;;;;;;;;;;8274266;28;20370;-71
2021/03/25 17:20:35;;;;;;;110.25;43.47;;;;;;;;;;8288280;28;20470;-72
2021/03/25 17:24:41;;;;;;;87.72;35.22;;;;;;;;;;8289013;28;20483;-71
2021/03/25 17:28:50;;;;;;;79.22;36.50;;;;;;;;;;8288456;28;20483;-71
2021/03/25 17:32:56;;;;;;;95.55;33.80;;;;;;;;;;8288971;28;20344;-71
2021/03/25 17:37:00;;;;;;;78.32;34.05;;;;;;;;;;8287596;28;20485;-73
2021/03/25 17:41:06;;;;;;;92.60;35.13;;;;;;;;;;8289865;28;20451;-70
2021/03/25 17:45:11;;;;;;;102.35;42.45;;;;;;;;;;8288396;28;20439;-70
2021/03/25 17:49:14;;;;;;;137.25;54.22;;;;;;;;;;8289271;28;20360;-72
2021/03/25 17:53:21;;;;;;;99.47;42.55;;;;;;;;;;8290577;28;20375;-71
2021/03/25 17:57:25;;;;;;;133.85;53.35;;;;;;;;;;8294200;28;20466;-71
2021/03/25 18:01:30;;;;;;;109.50;45.15;;;;;;;;;;8292572;28;20493;-70
2021/03/25 18:05:40;;;;;;;107.00;41.95;;;;;;;;;;8296610;28;20494;-69
2021/03/25 18:09:45;;;;;;;122.80;48.47;;;;;;;;;;8293586;28;20464;-69
2021/03/25 18:13:50;;;;;;;123.68;49.35;;;;;;;;;;8296603;28;20432;-69
2021/03/25 18:17:55;;;;;;;124.05;49.60;;;;;;;;;;8296989;28;20463;-69
2021/03/25 18:22:00;;;;;;;165.60;64.53;;;;;;;;;;8293045;28;20525;-69
2021/03/25 18:26:28;;;;;;;159.52;59.22;;;;;;;;;;8296343;28;20390;-71
2021/03/25 18:30:37;;;;;;;144.85;61.40;;;;;;;;;;8292319;28;20475;-69
2021/03/25 18:34:42;;;;;;;146.45;57.58;;;;;;;;;;8294142;28;20479;-70
2021/03/25 18:38:51;;;;;;;188.77;77.72;;;;;;;;;;8293488;28;20487;-70
2021/03/25 18:42:56;;;;;;;149.90;61.65;;;;;;;;;;8293510;28;20635;-71
2021/03/25 18:47:00;;;;;;;155.07;66.35;;;;;;;;;;8292792;28;20355;-70
2021/03/25 18:51:20;;;;;;;129.40;56.22;;;;;;;;;;8292516;28;20370;-70
2021/03/25 18:55:28;;;;;;;144.30;61.50;;;;;;;;;;8291403;28;20352;-69
2021/03/25 18:59:35;;;;;;;171.45;71.53;;;;;;;;;;8291028;28;20448;-69
2021/03/25 19:03:42;;;;;;;160.02;73.00;;;;;;;;;;8292931;28;20066;-69
2021/03/25 19:07:47;;;;;;;152.98;65.32;;;;;;;;;;8291127;28;20365;-70
2021/03/25 19:11:54;;;;;;;165.20;66.88;;;;;;;;;;8291125;28;20138;-69
2021/03/25 19:16:02;;;;;;;165.15;62.10;;;;;;;;;;8293106;28;20436;-69
2021/03/25 19:20:08;;;;;;;147.60;59.17;;;;;;;;;;8292509;28;20383;-69
2021/03/25 19:24:12;;;;;;;166.77;61.42;;;;;;;;;;8295150;28;20498;-69
2021/03/25 19:28:22;;;;;;;144.52;55.20;;;;;;;;;;8292373;28;20375;-69
2021/03/25 19:32:28;;;;;;;145.93;56.60;;;;;;;;;;8260855;28;20402;-69
2021/03/25 19:36:33;;;;;;;155.90;59.88;;;;;;;;;;8292367;28;20375;-69
2021/03/25 19:40:42;;;;;;;159.02;61.08;;;;;;;;;;8291499;28;20359;-71
2021/03/25 19:44:46;;;;;;;182.90;66.80;;;;;;;;;;8292840;28;20443;-69
2021/03/25 19:48:55;;;;;;;173.00;69.30;;;;;;;;;;8290965;28;20075;-70
2021/03/25 19:53:00;;;;;;;196.23;73.85;;;;;;;;;;8288812;28;20348;-70
2021/03/25 19:57:21;;;;;;;219.20;82.78;;;;;;;;;;8291860;28;20475;-69
2021/03/25 20:01:25;;;;;;;223.52;84.70;;;;;;;;;;8289709;28;20360;-70
2021/03/25 20:05:38;;;;;;;215.63;76.38;;;;;;;;;;8290228;28;20513;-69
2021/03/25 20:09:44;;;;;;;204.90;80.65;;;;;;;;;;8293252;28;20045;-69
2021/03/25 20:13:48;;;;;;;207.52;81.50;;;;;;;;;;8290708;28;20467;-69
2021/03/25 20:17:54;;;;;;;233.05;91.57;;;;;;;;;;8292817;28;20048;-70
2021/03/25 20:22:00;;;;;;;218.88;88.32;;;;;;;;;;8289105;28;20352;-69
2021/03/25 20:26:05;;;;;;;216.10;83.80;;;;;;;;;;8290510;28;20485;-69
2021/03/25 20:30:12;;;;;;;211.07;79.15;;;;;;;;;;8290339;28;20060;-69
2021/03/25 20:34:17;;;;;;;220.82;80.57;;;;;;;;;;8290307;28;20387;-69
2021/03/25 20:38:21;;;;;;;192.60;77.22;;;;;;;;;;8288876;28;20071;-69
2021/03/25 20:42:26;;;;;;;193.35;73.65;;;;;;;;;;8290669;28;20483;-69
2021/03/25 20:46:33;;;;;;;194.02;76.50;;;;;;;;;;8289887;28;20513;-69
2021/03/25 20:50:38;;;;;;;184.27;70.07;;;;;;;;;;8291700;28;20048;-69
2021/03/25 20:54:42;;;;;;;196.95;71.93;;;;;;;;;;8288017;28;20495;-69
2021/03/25 20:58:47;;;;;;;201.68;70.82;;;;;;;;;;8290613;28;20348;-69
2021/03/25 21:02:52;;;;;;;193.45;73.93;;;;;;;;;;8290038;28;20464;-69
2021/03/25 21:06:56;;;;;;;202.10;73.90;;;;;;;;;;8288278;28;20348;-69
2021/03/25 21:11:06;;;;;;;207.70;78.35;;;;;;;;;;8291433;28;20366;-69
2021/03/25 21:15:18;;;;;;;210.00;77.90;;;;;;;;;;8288564;28;20352;-69
2021/03/25 21:19:24;;;;;;;222.02;81.57;;;;;;;;;;8288114;28;20474;-69
2021/03/25 21:23:30;;;;;;;173.02;65.97;;;;;;;;;;8288384;28;20357;-68
2021/03/25 21:27:33;;;;;;;166.65;65.60;;;;;;;;;;8292985;28;20424;-68
2021/03/25 21:31:39;;;;;;;170.68;67.68;;;;;;;;;;8294299;28;20370;-68
2021/03/25 21:35:43;;;;;;;163.73;65.05;;;;;;;;;;8295902;28;20467;-68
2021/03/25 21:39:48;;;;;;;172.38;66.57;;;;;;;;;;8295682;28;20470;-68
2021/03/25 21:43:56;;;;;;;168.82;65.15;;;;;;;;;;8295678;28;20371;-68
2021/03/25 21:48:01;;;;;;;171.40;65.00;;;;;;;;;;8295256;28;20497;-68
2021/03/25 21:52:06;;;;;;;162.02;62.85;;;;;;;;;;8294625;28;20467;-68
2021/03/25 21:56:35;;;;;;;183.20;65.10;;;;;;;;;;8294628;28;20422;-68
2021/03/25 22:00:40;;;;;;;171.23;63.80;;;;;;;;;;8294373;28;20382;-68
2021/03/25 22:04:44;;;;;;;159.60;62.22;;;;;;;;;;8296212;28;20467;-67
2021/03/25 22:08:49;;;;;;;169.20;64.35;;;;;;;;;;8294122;28;20374;-68
2021/03/25 22:12:53;;;;;;;160.05;62.72;;;;;;;;;;8292779;28;20397;-70
2021/03/25 22:16:58;;;;;;;164.18;63.00;;;;;;;;;;8295237;28;20478;-68
2021/03/25 22:21:04;;;;;;;161.82;64.93;;;;;;;;;;8295672;28;20502;-68
2021/03/25 22:25:10;;;;;;;179.30;64.25;;;;;;;;;;8296472;28;20470;-68
2021/03/25 22:29:21;;;;;;;155.02;59.20;;;;;;;;;;8294321;28;20487;-67
2021/03/25 22:33:25;;;;;;;167.65;62.20;;;;;;;;;;8295457;28;20345;-67
2021/03/25 22:37:30;;;;;;;183.75;67.50;;;;;;;;;;8296315;28;20060;-67
2021/03/25 22:41:36;;;;;;;158.68;63.80;;;;;;;;;;8296228;28;20633;-68
2021/03/25 22:45:44;;;;;;;162.43;61.78;;;;;;;;;;8293194;28;20472;-68
2021/03/25 22:49:49;;;;;;;161.40;62.88;;;;;;;;;;8291669;28;20075;-67
2021/03/25 22:53:58;;;;;;;165.30;62.90;;;;;;;;;;8294071;28;20056;-68
2021/03/25 22:58:03;;;;;;;160.82;61.00;;;;;;;;;;8292635;28;20355;-67
2021/03/25 23:02:13;;;;;;;143.55;59.53;;;;;;;;;;8292797;28;20444;-67
2021/03/25 23:06:48;;;;;;;159.18;58.60;;;;;;;;;;8293623;28;20413;-67
2021/03/25 23:10:55;;;;;;;169.38;58.47;;;;;;;;;;8293192;28;20465;-67
2021/03/25 23:15:00;;;;;;;158.88;61.30;;;;;;;;;;8293455;28;20379;-68
2021/03/25 23:19:12;;;;;;;167.80;60.20;;;;;;;;;;8292846;28;20056;-67
2021/03/25 23:23:26;;;;;;;161.52;59.05;;;;;;;;;;8295263;28;20366;-67
2021/03/25 23:27:30;;;;;;;168.27;60.03;;;;;;;;;;8292715;28;20510;-67
2021/03/25 23:31:34;;;;;;;163.05;59.53;;;;;;;;;;8292802;28;20459;-67
2021/03/25 23:35:40;;;;;;;165.70;59.33;;;;;;;;;;8292465;28;20452;-67
2021/03/25 23:39:45;;;;;;;169.10;57.88;;;;;;;;;;8292896;28;20075;-68
2021/03/25 23:43:50;;;;;;;174.18;60.20;;;;;;;;;;8291653;28;20605;-67
2021/03/25 23:47:55;;;;;;;163.52;62.00;;;;;;;;;;8291202;28;20352;-68
2021/03/25 23:52:05;;;;;;;182.52;61.38;;;;;;;;;;8290964;28;20465;-67
2021/03/25 23:56:22;;;;;;;166.68;59.72;;;;;;;;;;8292616;28;20425;-66
